Emneth, United Kingdom
Current Conditions -  °F | °C
As of 9:50 AM on Saturday 25 Oct 2014 (Local Time) from EGYM Reporting Station
Clear Clear  
Wind Chill: 44°   Ceiling: Unl
Heat Index: 48°   Visibility: 6mi
Dew Point: 45°   Wind: 9mph
Humidity: 87%   Direction: 210°SSW
Pressure: 30.03"   Gusts: NA
Location:  52.64°N, 0.21°E
Report Text: EGYM 250850Z AUTO 21008KT 9999 NCD 09/07 Q1017
Loading
Personal Weather Stations






























Interactive Weather Map
Tropical Storm Tracking
New forecast layout! Learn more

10-Day Weather Forecast

Advertisements
Track Severe Weather on mobile